Time;durP1;ratioP1;P1;durP2;ratioP2;P2;SDS_P1;SDS_P2;PMS_P1;PMS_P2;Temp;Humidity;BMP_temperature;BMP_pressure;BME280_temperature;BME280_humidity;BME280_pressure;Samples;Min_cycle;Max_cycle;Signal;HPM_P1;HPM_P2
2023/05/26 00:01:06;;;;;;;7.93;5.73;;;;;;;;;;5051848;28;20987;-66
2023/05/26 00:03:35;;;;;;;9.47;5.67;;;;;;;;;;5052374;28;20680;-67
2023/05/26 00:06:04;;;;;;;8.10;5.97;;;;;;;;;;5052168;28;20585;-67
2023/05/26 00:08:32;;;;;;;7.30;6.60;;;;;;;;;;5052880;28;20569;-67
2023/05/26 00:11:01;;;;;;;8.87;5.90;;;;;;;;;;5050906;28;20670;-67
2023/05/26 00:13:29;;;;;;;9.27;6.17;;;;;;;;;;5053050;28;20630;-66
2023/05/26 00:15:58;;;;;;;6.23;5.47;;;;;;;;;;5053133;28;20635;-67
2023/05/26 00:18:27;;;;;;;10.43;5.77;;;;;;;;;;5055799;28;20609;-67
2023/05/26 00:20:55;;;;;;;7.90;6.80;;;;;;;;;;5056153;28;20650;-66
2023/05/26 00:23:24;;;;;;;9.67;6.63;;;;;;;;;;5056630;28;20591;-66
2023/05/26 00:25:52;;;;;;;7.03;6.30;;;;;;;;;;5056242;28;20625;-67
2023/05/26 00:28:20;;;;;;;11.90;6.60;;;;;;;;;;5054955;28;20617;-66
2023/05/26 00:30:48;;;;;;;8.03;6.20;;;;;;;;;;5055697;28;20590;-66
2023/05/26 00:33:17;;;;;;;12.77;7.20;;;;;;;;;;5056479;28;20648;-66
2023/05/26 00:35:46;;;;;;;9.67;6.43;;;;;;;;;;5054631;28;20595;-66
2023/05/26 00:38:14;;;;;;;11.93;6.90;;;;;;;;;;5056348;28;20585;-66
2023/05/26 00:40:43;;;;;;;10.03;7.00;;;;;;;;;;5055921;28;20654;-66
2023/05/26 00:43:11;;;;;;;9.67;7.13;;;;;;;;;;5055801;28;20945;-66
2023/05/26 00:45:40;;;;;;;7.33;5.93;;;;;;;;;;5056041;28;20646;-66
2023/05/26 00:48:08;;;;;;;7.77;6.97;;;;;;;;;;5056394;28;20594;-66
2023/05/26 00:50:38;;;;;;;12.80;7.00;;;;;;;;;;5056197;28;20589;-66
2023/05/26 00:53:08;;;;;;;7.00;6.40;;;;;;;;;;5054312;28;20597;-66
2023/05/26 00:55:36;;;;;;;10.80;6.40;;;;;;;;;;5055664;28;20561;-67
2023/05/26 00:58:05;;;;;;;16.63;7.70;;;;;;;;;;5055988;28;20573;-67
2023/05/26 01:00:33;;;;;;;13.17;7.97;;;;;;;;;;5056967;28;20665;-64
2023/05/26 01:03:02;;;;;;;12.33;7.23;;;;;;;;;;5063201;28;20701;-64
2023/05/26 01:05:32;;;;;;;7.83;6.87;;;;;;;;;;5064248;28;20682;-64
2023/05/26 01:08:02;;;;;;;9.10;7.27;;;;;;;;;;5063561;28;20696;-63
2023/05/26 01:10:32;;;;;;;9.37;7.17;;;;;;;;;;5063623;28;20726;-61
2023/05/26 01:13:02;;;;;;;10.63;7.80;;;;;;;;;;5063952;28;20685;-62
2023/05/26 01:15:31;;;;;;;12.23;8.32;;;;;;;;;;5063553;28;20646;-61
2023/05/26 01:18:04;;;;;;;10.90;7.83;;;;;;;;;;5073160;28;20259;-63
2023/05/26 01:20:33;;;;;;;11.40;7.47;;;;;;;;;;5082733;28;20695;-64
2023/05/26 01:23:07;;;;;;;12.77;7.82;;;;;;;;;;5084520;28;20717;-64
2023/05/26 01:25:46;;;;;;;10.38;7.15;;;;;;;;;;5084072;28;20243;-67
2023/05/26 01:28:18;;;;;;;14.65;8.10;;;;;;;;;;5082913;28;20430;-64
2023/05/26 01:30:46;;;;;;;11.63;8.33;;;;;;;;;;5082660;28;20240;-64
2023/05/26 01:33:16;;;;;;;10.50;8.00;;;;;;;;;;5084171;28;20669;-63
2023/05/26 01:35:44;;;;;;;8.88;7.93;;;;;;;;;;5081847;28;20637;-63
2023/05/26 01:38:13;;;;;;;9.90;8.13;;;;;;;;;;5084173;28;20614;-64
2023/05/26 01:40:43;;;;;;;11.63;7.10;;;;;;;;;;5083507;28;20299;-64
2023/05/26 01:43:14;;;;;;;13.20;7.80;;;;;;;;;;5083715;28;20602;-63
2023/05/26 01:45:46;;;;;;;13.80;7.60;;;;;;;;;;5083514;28;20648;-63
2023/05/26 01:48:16;;;;;;;11.63;7.93;;;;;;;;;;5083931;28;20632;-64
2023/05/26 01:50:46;;;;;;;9.20;6.63;;;;;;;;;;5082773;28;20629;-64
2023/05/26 01:53:16;;;;;;;15.20;7.53;;;;;;;;;;5084101;28;20670;-63
2023/05/26 01:55:45;;;;;;;13.10;8.40;;;;;;;;;;5082054;28;20660;-63
2023/05/26 01:58:14;;;;;;;13.98;7.78;;;;;;;;;;5084172;28;20645;-63
2023/05/26 02:00:48;;;;;;;8.10;6.65;;;;;;;;;;5082207;28;20303;-64
2023/05/26 02:03:17;;;;;;;10.63;7.10;;;;;;;;;;5081397;28;20249;-64
2023/05/26 02:05:45;;;;;;;11.13;7.83;;;;;;;;;;5080829;28;20660;-64
2023/05/26 02:08:14;;;;;;;11.73;9.00;;;;;;;;;;5083623;28;20691;-63
2023/05/26 02:10:42;;;;;;;9.07;6.90;;;;;;;;;;5083214;28;20709;-63
2023/05/26 02:13:10;;;;;;;10.70;7.83;;;;;;;;;;5083301;28;20709;-64
2023/05/26 02:15:39;;;;;;;11.33;7.67;;;;;;;;;;5083262;28;20693;-64
2023/05/26 02:18:11;;;;;;;13.93;6.90;;;;;;;;;;5082633;28;20665;-64
2023/05/26 02:20:41;;;;;;;10.65;7.80;;;;;;;;;;5081995;28;20689;-64
2023/05/26 02:23:09;;;;;;;15.55;8.38;;;;;;;;;;5082606;28;20259;-64
2023/05/26 02:25:38;;;;;;;12.38;8.32;;;;;;;;;;5083454;28;20757;-63
2023/05/26 02:28:07;;;;;;;14.63;8.90;;;;;;;;;;5081408;28;20283;-64
2023/05/26 02:30:35;;;;;;;13.38;8.00;;;;;;;;;;5082857;28;20683;-66
2023/05/26 02:33:03;;;;;;;11.10;7.50;;;;;;;;;;5080629;28;20730;-62
2023/05/26 02:35:33;;;;;;;10.27;8.57;;;;;;;;;;5083069;28;20279;-61
2023/05/26 02:38:01;;;;;;;10.20;7.80;;;;;;;;;;5081179;28;20667;-62
2023/05/26 02:40:29;;;;;;;15.15;8.27;;;;;;;;;;5082314;28;20299;-63
2023/05/26 02:42:57;;;;;;;14.55;7.85;;;;;;;;;;5082219;28;20567;-64
2023/05/26 02:45:26;;;;;;;8.80;7.65;;;;;;;;;;5081522;28;20279;-63
2023/05/26 02:47:54;;;;;;;13.70;8.23;;;;;;;;;;5081995;28;20274;-64
2023/05/26 02:50:23;;;;;;;16.77;8.80;;;;;;;;;;5080967;28;20581;-63
2023/05/26 02:52:52;;;;;;;8.60;7.70;;;;;;;;;;5080511;28;20745;-63
2023/05/26 02:55:21;;;;;;;9.98;7.60;;;;;;;;;;5081564;28;20282;-63
2023/05/26 02:57:50;;;;;;;12.35;7.00;;;;;;;;;;5081404;28;20287;-63
2023/05/26 03:00:19;;;;;;;11.07;8.63;;;;;;;;;;5081058;28;20276;-64
2023/05/26 03:02:47;;;;;;;10.07;7.28;;;;;;;;;;5061381;28;20257;-64
2023/05/26 03:05:16;;;;;;;11.10;8.40;;;;;;;;;;5061644;28;20608;-64
2023/05/26 03:07:44;;;;;;;9.07;6.65;;;;;;;;;;5060651;28;20292;-63
2023/05/26 03:10:14;;;;;;;12.53;8.83;;;;;;;;;;5061870;28;20738;-64
2023/05/26 03:12:43;;;;;;;27.45;9.82;;;;;;;;;;5062408;28;20607;-64
2023/05/26 03:15:12;;;;;;;12.25;8.43;;;;;;;;;;5061954;28;20287;-64
2023/05/26 03:17:41;;;;;;;10.95;8.25;;;;;;;;;;5062210;28;20272;-64
2023/05/26 03:20:09;;;;;;;12.20;8.20;;;;;;;;;;5082219;28;20259;-63
2023/05/26 03:22:37;;;;;;;13.02;8.00;;;;;;;;;;5082524;28;20286;-64
2023/05/26 03:25:06;;;;;;;11.25;8.18;;;;;;;;;;5082290;28;20291;-67
2023/05/26 03:27:43;;;;;;;8.82;7.95;;;;;;;;;;5081584;28;20333;-64
2023/05/26 03:30:12;;;;;;;11.98;7.75;;;;;;;;;;5080740;28;20248;-63
2023/05/26 03:32:43;;;;;;;15.98;7.70;;;;;;;;;;5082283;28;20244;-64
2023/05/26 03:35:11;;;;;;;12.88;7.70;;;;;;;;;;5081521;28;20283;-66
2023/05/26 03:37:40;;;;;;;17.23;8.38;;;;;;;;;;5081377;28;20267;-64
2023/05/26 03:40:10;;;;;;;12.15;7.78;;;;;;;;;;5081589;28;20286;-63
2023/05/26 03:42:39;;;;;;;11.30;8.48;;;;;;;;;;5080816;28;20278;-63
2023/05/26 03:45:09;;;;;;;16.80;8.90;;;;;;;;;;5064557;28;20290;-63
2023/05/26 03:47:37;;;;;;;14.10;8.25;;;;;;;;;;5081336;28;20263;-64
2023/05/26 03:50:06;;;;;;;9.80;7.90;;;;;;;;;;5082420;28;20276;-66
2023/05/26 03:52:35;;;;;;;9.68;8.25;;;;;;;;;;5082076;28;20288;-64
2023/05/26 03:55:05;;;;;;;10.32;7.93;;;;;;;;;;5087257;28;20346;-65
2023/05/26 03:57:35;;;;;;;14.63;9.23;;;;;;;;;;5086445;28;20619;-64
2023/05/26 04:00:07;;;;;;;13.57;8.43;;;;;;;;;;5086447;28;20278;-63
2023/05/26 04:02:46;;;;;;;10.05;7.80;;;;;;;;;;5084933;28;20276;-64
2023/05/26 04:05:16;;;;;;;10.18;8.57;;;;;;;;;;5085024;28;20698;-63
2023/05/26 04:07:46;;;;;;;18.70;8.00;;;;;;;;;;5084708;28;20303;-61
2023/05/26 04:10:14;;;;;;;7.65;6.85;;;;;;;;;;5085631;28;20291;-62
2023/05/26 04:12:44;;;;;;;16.00;8.68;;;;;;;;;;5083128;28;20252;-65
2023/05/26 04:15:13;;;;;;;15.95;8.57;;;;;;;;;;5085184;28;20261;-63
2023/05/26 04:17:42;;;;;;;13.82;8.82;;;;;;;;;;5084825;28;20291;-65
2023/05/26 04:20:11;;;;;;;9.43;8.02;;;;;;;;;;5086227;28;20701;-63
2023/05/26 04:22:40;;;;;;;12.98;8.88;;;;;;;;;;5085692;28;20303;-64
2023/05/26 04:25:08;;;;;;;13.45;8.18;;;;;;;;;;5085159;28;20275;-64
2023/05/26 04:27:48;;;;;;;10.65;7.90;;;;;;;;;;5084262;28;20247;-64
2023/05/26 04:30:42;;;;;;;11.80;7.72;;;;;;;;;;5084345;28;20259;-63
2023/05/26 04:33:16;;;;;;;14.68;8.45;;;;;;;;;;5085703;28;20326;-63
2023/05/26 04:36:08;;;;;;;16.50;9.48;;;;;;;;;;5080913;28;20287;-64
2023/05/26 04:38:36;;;;;;;13.63;7.00;;;;;;;;;;5086395;28;20298;-66
2023/05/26 04:41:06;;;;;;;12.45;7.95;;;;;;;;;;5085913;28;20298;-65
2023/05/26 04:43:35;;;;;;;12.52;8.85;;;;;;;;;;5086727;28;20251;-64
2023/05/26 04:46:04;;;;;;;14.02;8.10;;;;;;;;;;5067272;28;20260;-63
2023/05/26 04:48:33;;;;;;;10.38;7.97;;;;;;;;;;5083666;28;20738;-64
2023/05/26 04:51:01;;;;;;;17.48;8.68;;;;;;;;;;5085481;28;20303;-64
2023/05/26 04:53:31;;;;;;;9.40;7.47;;;;;;;;;;5083733;28;20263;-64
2023/05/26 04:56:00;;;;;;;13.13;8.32;;;;;;;;;;5083925;28;20260;-64
2023/05/26 04:58:28;;;;;;;14.37;7.67;;;;;;;;;;5085920;28;20208;-64
2023/05/26 05:00:57;;;;;;;16.15;8.60;;;;;;;;;;5084279;28;20660;-64
2023/05/26 05:03:51;;;;;;;16.73;7.90;;;;;;;;;;5070376;28;20288;-64
2023/05/26 05:06:29;;;;;;;13.63;8.90;;;;;;;;;;5067351;28;20224;-64
2023/05/26 05:08:58;;;;;;;9.75;8.50;;;;;;;;;;5070969;28;20273;-62
2023/05/26 05:11:27;;;;;;;15.18;7.90;;;;;;;;;;5069302;28;20271;-62
2023/05/26 05:13:55;;;;;;;13.23;7.60;;;;;;;;;;5069562;28;20648;-61
2023/05/26 05:16:24;;;;;;;13.73;8.40;;;;;;;;;;5050949;28;20686;-62
2023/05/26 05:18:53;;;;;;;14.32;7.68;;;;;;;;;;5066589;28;20260;-62
2023/05/26 05:21:21;;;;;;;11.15;7.80;;;;;;;;;;5070803;28;20361;-62
2023/05/26 05:23:51;;;;;;;12.68;8.60;;;;;;;;;;5047060;28;20272;-62
2023/05/26 05:26:22;;;;;;;11.70;8.20;;;;;;;;;;5062480;28;20287;-62
2023/05/26 05:28:51;;;;;;;20.73;7.93;;;;;;;;;;5046915;28;20569;-62
2023/05/26 05:31:34;;;;;;;14.63;8.10;;;;;;;;;;5062757;28;20640;-62
2023/05/26 05:34:02;;;;;;;12.73;8.83;;;;;;;;;;5064735;28;20701;-62
2023/05/26 05:36:31;;;;;;;14.87;8.00;;;;;;;;;;5070306;28;20692;-63
2023/05/26 05:39:00;;;;;;;18.15;8.80;;;;;;;;;;5071296;28;20714;-62
2023/05/26 05:41:29;;;;;;;10.52;8.00;;;;;;;;;;5070698;28;20295;-62
2023/05/26 05:43:58;;;;;;;16.10;8.93;;;;;;;;;;5074425;28;20332;-63
2023/05/26 05:46:28;;;;;;;12.75;8.40;;;;;;;;;;5071966;28;20299;-62
2023/05/26 05:48:59;;;;;;;15.55;8.38;;;;;;;;;;5072367;28;20303;-62
2023/05/26 05:51:31;;;;;;;18.27;8.60;;;;;;;;;;5074201;28;20249;-62
2023/05/26 05:54:00;;;;;;;9.27;7.43;;;;;;;;;;5074652;28;20698;-62
2023/05/26 05:56:31;;;;;;;15.07;8.40;;;;;;;;;;5070842;28;20658;-64
2023/05/26 05:59:01;;;;;;;11.90;7.30;;;;;;;;;;5075308;28;20681;-62
2023/05/26 06:01:29;;;;;;;14.80;8.37;;;;;;;;;;5068371;28;20705;-62
2023/05/26 06:03:57;;;;;;;11.07;7.53;;;;;;;;;;5069624;28;20637;-62
2023/05/26 06:06:26;;;;;;;12.73;8.13;;;;;;;;;;5074284;28;20740;-65
2023/05/26 06:08:54;;;;;;;9.70;7.23;;;;;;;;;;5071872;28;20681;-61
2023/05/26 06:11:22;;;;;;;10.50;8.20;;;;;;;;;;5073866;28;20752;-63
2023/05/26 06:13:52;;;;;;;9.67;8.70;;;;;;;;;;5069794;28;20679;-62
2023/05/26 06:16:20;;;;;;;8.53;7.60;;;;;;;;;;5061886;28;20695;-62
2023/05/26 06:18:48;;;;;;;10.50;7.43;;;;;;;;;;5061008;28;20676;-62
2023/05/26 06:21:16;;;;;;;12.97;7.67;;;;;;;;;;5066279;28;21212;-62
2023/05/26 06:23:48;;;;;;;14.70;8.37;;;;;;;;;;5060599;28;20721;-64
2023/05/26 06:26:16;;;;;;;16.17;8.60;;;;;;;;;;5062758;28;20622;-62
2023/05/26 06:28:45;;;;;;;13.67;8.20;;;;;;;;;;5062117;28;20702;-62
2023/05/26 06:31:15;;;;;;;13.17;8.13;;;;;;;;;;5059267;28;20822;-63
2023/05/26 06:33:58;;;;;;;11.23;7.77;;;;;;;;;;5066852;28;20670;-63
2023/05/26 06:36:27;;;;;;;11.33;8.80;;;;;;;;;;5070076;28;21235;-63
2023/05/26 06:38:55;;;;;;;9.93;7.50;;;;;;;;;;5081563;28;21297;-63
2023/05/26 06:41:23;;;;;;;17.43;8.37;;;;;;;;;;5084566;28;20695;-63
2023/05/26 06:43:53;;;;;;;14.97;7.97;;;;;;;;;;5083290;28;21259;-63
2023/05/26 06:46:23;;;;;;;10.77;8.23;;;;;;;;;;5079834;28;20721;-63
2023/05/26 06:48:52;;;;;;;14.43;7.50;;;;;;;;;;5065262;28;20689;-64
2023/05/26 06:51:26;;;;;;;12.43;7.50;;;;;;;;;;5078574;28;20667;-64
2023/05/26 06:53:55;;;;;;;9.80;7.80;;;;;;;;;;5062514;28;20689;-64
2023/05/26 06:56:23;;;;;;;11.23;8.10;;;;;;;;;;5081351;28;20662;-64
2023/05/26 06:58:52;;;;;;;13.87;8.73;;;;;;;;;;5067472;28;20694;-64
2023/05/26 07:01:23;;;;;;;13.67;7.87;;;;;;;;;;5078326;28;20689;-64
2023/05/26 07:03:52;;;;;;;17.37;8.23;;;;;;;;;;5073613;28;20688;-63
2023/05/26 07:06:20;;;;;;;11.50;7.90;;;;;;;;;;5055145;28;20749;-63
2023/05/26 07:08:52;;;;;;;9.27;7.93;;;;;;;;;;5056428;28;21176;-63
2023/05/26 07:11:27;;;;;;;14.77;8.10;;;;;;;;;;5057250;28;20643;-63
2023/05/26 07:14:00;;;;;;;8.97;8.03;;;;;;;;;;5056819;28;20658;-64
2023/05/26 07:16:29;;;;;;;9.30;8.10;;;;;;;;;;5058579;28;20682;-63
2023/05/26 07:18:58;;;;;;;17.90;8.23;;;;;;;;;;5057130;28;20701;-63
2023/05/26 07:21:27;;;;;;;11.90;7.50;;;;;;;;;;5041341;28;20698;-64
2023/05/26 07:23:56;;;;;;;19.80;9.33;;;;;;;;;;5060813;28;20700;-62
2023/05/26 07:26:26;;;;;;;12.03;8.97;;;;;;;;;;5074738;28;20712;-66
2023/05/26 07:28:54;;;;;;;10.47;8.10;;;;;;;;;;5077798;28;20653;-64
2023/05/26 07:31:23;;;;;;;8.93;8.13;;;;;;;;;;5061133;28;20668;-63
2023/05/26 07:33:57;;;;;;;14.10;9.60;;;;;;;;;;5077520;28;20694;-63
2023/05/26 07:36:26;;;;;;;10.47;7.70;;;;;;;;;;5077981;28;20661;-66
2023/05/26 07:38:54;;;;;;;15.53;8.50;;;;;;;;;;5072713;28;20708;-64
2023/05/26 07:41:22;;;;;;;9.57;8.17;;;;;;;;;;5065327;28;20679;-64
2023/05/26 07:43:50;;;;;;;11.83;8.27;;;;;;;;;;5075764;28;21050;-64
2023/05/26 07:46:19;;;;;;;13.83;9.00;;;;;;;;;;5094588;28;21191;-64
2023/05/26 07:48:47;;;;;;;13.50;8.07;;;;;;;;;;5077932;28;20720;-65
2023/05/26 07:51:17;;;;;;;10.83;8.57;;;;;;;;;;5079615;28;20767;-65
2023/05/26 07:53:45;;;;;;;10.60;9.30;;;;;;;;;;5076358;28;20702;-65
2023/05/26 07:56:14;;;;;;;14.10;9.30;;;;;;;;;;5082075;28;21274;-64
2023/05/26 07:58:42;;;;;;;13.17;8.67;;;;;;;;;;5087586;28;20687;-65
2023/05/26 08:01:10;;;;;;;10.07;8.30;;;;;;;;;;5075195;28;20713;-64
2023/05/26 08:03:39;;;;;;;9.80;8.10;;;;;;;;;;5057127;28;20730;-65
2023/05/26 08:06:07;;;;;;;13.23;8.30;;;;;;;;;;5075582;28;20687;-65
2023/05/26 08:08:37;;;;;;;17.93;7.60;;;;;;;;;;5074463;28;20688;-67
2023/05/26 08:11:05;;;;;;;9.97;8.03;;;;;;;;;;5068174;28;20721;-63
2023/05/26 08:13:33;;;;;;;14.10;8.77;;;;;;;;;;5073054;28;20667;-65
2023/05/26 08:16:01;;;;;;;12.23;9.00;;;;;;;;;;5070509;28;20701;-65
2023/05/26 08:18:30;;;;;;;11.97;8.60;;;;;;;;;;5068404;28;21051;-63
2023/05/26 08:20:58;;;;;;;14.73;9.17;;;;;;;;;;5069795;28;21223;-64
2023/05/26 08:23:26;;;;;;;10.20;8.20;;;;;;;;;;5067693;28;20765;-65
2023/05/26 08:25:56;;;;;;;13.23;9.80;;;;;;;;;;5070083;28;21086;-64
2023/05/26 08:28:24;;;;;;;20.70;9.20;;;;;;;;;;5072427;28;20798;-63
2023/05/26 08:30:52;;;;;;;12.37;9.33;;;;;;;;;;5055740;28;21103;-64
2023/05/26 08:33:21;;;;;;;10.90;9.23;;;;;;;;;;5075791;28;21202;-64
2023/05/26 08:35:49;;;;;;;15.27;9.33;;;;;;;;;;5080319;28;20674;-63
2023/05/26 08:38:17;;;;;;;11.03;9.57;;;;;;;;;;5080510;28;20717;-64
2023/05/26 08:40:46;;;;;;;12.67;9.50;;;;;;;;;;5079447;28;20694;-66
2023/05/26 08:43:17;;;;;;;9.57;8.60;;;;;;;;;;5071035;28;20710;-63
2023/05/26 08:45:45;;;;;;;15.13;8.87;;;;;;;;;;5070764;28;20693;-63
2023/05/26 08:48:14;;;;;;;11.47;9.33;;;;;;;;;;5081020;28;21045;-63
2023/05/26 08:50:43;;;;;;;14.20;10.47;;;;;;;;;;5073049;28;20682;-63
2023/05/26 08:53:12;;;;;;;12.90;8.73;;;;;;;;;;5075196;28;21045;-64
2023/05/26 08:55:40;;;;;;;13.63;10.00;;;;;;;;;;5071679;28;21056;-64
2023/05/26 08:58:09;;;;;;;14.43;9.43;;;;;;;;;;5072769;28;20709;-64
2023/05/26 09:00:41;;;;;;;12.60;8.73;;;;;;;;;;5072643;28;20705;-64
2023/05/26 09:03:10;;;;;;;12.83;9.23;;;;;;;;;;5070564;28;20658;-65
2023/05/26 09:05:38;;;;;;;12.97;8.87;;;;;;;;;;5071765;28;20709;-64
2023/05/26 09:08:06;;;;;;;16.87;15.40;;;;;;;;;;5072495;28;21180;-65
2023/05/26 09:10:34;;;;;;;12.83;9.57;;;;;;;;;;5067411;28;20725;-65
2023/05/26 09:13:06;;;;;;;12.30;9.80;;;;;;;;;;5066499;28;20702;-63
2023/05/26 09:15:36;;;;;;;17.30;10.07;;;;;;;;;;5065457;28;20696;-66
2023/05/26 09:18:06;;;;;;;10.77;9.80;;;;;;;;;;5062277;28;21192;-64
2023/05/26 09:20:35;;;;;;;11.50;9.67;;;;;;;;;;5061815;28;20618;-65
2023/05/26 09:23:03;;;;;;;11.70;10.47;;;;;;;;;;5077114;28;20626;-64
2023/05/26 09:25:32;;;;;;;11.10;9.90;;;;;;;;;;5069087;28;20686;-64
2023/05/26 09:28:04;;;;;;;12.30;9.60;;;;;;;;;;5071168;28;20710;-65
2023/05/26 09:30:36;;;;;;;12.40;9.00;;;;;;;;;;5062102;28;20697;-64
2023/05/26 09:33:06;;;;;;;14.53;9.43;;;;;;;;;;5075024;28;20729;-65
2023/05/26 09:35:38;;;;;;;16.60;9.47;;;;;;;;;;5074442;28;20667;-64
2023/05/26 09:38:06;;;;;;;17.00;9.10;;;;;;;;;;5078032;28;20745;-65
2023/05/26 09:40:35;;;;;;;14.03;9.47;;;;;;;;;;5081786;28;20742;-65
2023/05/26 09:43:03;;;;;;;10.83;9.67;;;;;;;;;;5081350;28;20721;-64
2023/05/26 09:45:35;;;;;;;16.80;8.30;;;;;;;;;;5081551;28;20772;-64
2023/05/26 09:48:04;;;;;;;14.43;10.00;;;;;;;;;;5082548;28;20644;-64
2023/05/26 09:50:34;;;;;;;11.60;8.33;;;;;;;;;;5065705;28;20678;-64
2023/05/26 09:53:03;;;;;;;11.20;9.57;;;;;;;;;;5062482;28;21080;-63
2023/05/26 09:55:32;;;;;;;12.27;9.83;;;;;;;;;;5062530;28;20706;-64
2023/05/26 09:58:04;;;;;;;10.73;9.63;;;;;;;;;;5062700;28;20707;-64
2023/05/26 10:00:34;;;;;;;10.17;9.10;;;;;;;;;;5064117;28;21020;-64
2023/05/26 10:03:03;;;;;;;10.93;9.87;;;;;;;;;;5061644;28;20873;-63
2023/05/26 10:05:31;;;;;;;11.00;9.83;;;;;;;;;;5059984;28;20734;-64
2023/05/26 10:08:01;;;;;;;10.30;9.30;;;;;;;;;;5060814;28;20729;-65
2023/05/26 10:10:31;;;;;;;12.03;8.63;;;;;;;;;;5061951;28;21083;-63
2023/05/26 10:13:01;;;;;;;18.30;10.00;;;;;;;;;;5074748;28;20703;-63
2023/05/26 10:15:29;;;;;;;13.30;9.17;;;;;;;;;;5083642;28;20698;-64
2023/05/26 10:17:58;;;;;;;17.83;10.10;;;;;;;;;;5083881;28;20669;-63
2023/05/26 10:20:27;;;;;;;9.43;8.10;;;;;;;;;;5076294;28;20780;-64
2023/05/26 10:22:59;;;;;;;9.07;8.27;;;;;;;;;;5063992;28;20649;-63
2023/05/26 10:25:31;;;;;;;13.53;9.47;;;;;;;;;;5069041;28;20714;-64
2023/05/26 10:28:03;;;;;;;14.40;9.63;;;;;;;;;;5066590;28;20655;-63
2023/05/26 10:30:32;;;;;;;9.97;8.77;;;;;;;;;;5061796;28;20686;-64
2023/05/26 10:33:08;;;;;;;11.97;9.20;;;;;;;;;;5066001;28;20702;-64
2023/05/26 10:35:37;;;;;;;12.20;8.93;;;;;;;;;;5063617;28;20654;-64
2023/05/26 10:38:12;;;;;;;13.17;11.00;;;;;;;;;;5063036;28;20706;-63
2023/05/26 10:40:43;;;;;;;14.77;9.10;;;;;;;;;;5062258;28;20674;-64
2023/05/26 10:43:15;;;;;;;12.37;9.63;;;;;;;;;;5062089;28;20753;-64
2023/05/26 10:45:45;;;;;;;11.00;9.83;;;;;;;;;;5061540;28;20710;-63
2023/05/26 10:48:13;;;;;;;16.60;9.87;;;;;;;;;;5062674;28;20702;-63
2023/05/26 10:51:00;;;;;;;12.57;9.53;;;;;;;;;;5062226;28;21073;-64
2023/05/26 10:53:32;;;;;;;22.13;9.70;;;;;;;;;;5066312;28;20671;-64
2023/05/26 10:56:03;;;;;;;9.67;8.83;;;;;;;;;;5069810;28;20739;-63
2023/05/26 10:58:32;;;;;;;11.20;10.10;;;;;;;;;;5070181;28;20689;-63
2023/05/26 11:01:01;;;;;;;11.87;10.23;;;;;;;;;;5061587;28;20678;-64
2023/05/26 11:03:33;;;;;;;15.37;10.10;;;;;;;;;;5058185;28;20726;-65
2023/05/26 11:06:01;;;;;;;15.90;12.80;;;;;;;;;;5059900;28;20721;-63
2023/05/26 11:08:34;;;;;;;12.40;9.33;;;;;;;;;;5067599;28;20702;-64
2023/05/26 11:11:05;;;;;;;10.50;9.60;;;;;;;;;;5073417;28;20646;-64
2023/05/26 11:13:40;;;;;;;11.63;10.43;;;;;;;;;;5074414;28;20690;-64
2023/05/26 11:16:13;;;;;;;13.50;9.43;;;;;;;;;;5076995;28;20737;-65
2023/05/26 11:18:41;;;;;;;12.17;11.07;;;;;;;;;;5070205;28;20706;-64
2023/05/26 11:21:09;;;;;;;10.43;9.53;;;;;;;;;;5083638;28;20714;-64
2023/05/26 11:23:38;;;;;;;12.40;9.97;;;;;;;;;;5074615;28;20809;-64
2023/05/26 11:26:13;;;;;;;14.07;8.80;;;;;;;;;;5077858;28;20661;-64
2023/05/26 11:28:42;;;;;;;14.33;9.63;;;;;;;;;;5064611;28;20604;-64
2023/05/26 11:31:11;;;;;;;11.50;10.50;;;;;;;;;;5068940;28;20664;-64
2023/05/26 11:33:39;;;;;;;12.50;9.70;;;;;;;;;;5066710;28;20617;-64
2023/05/26 11:36:09;;;;;;;11.50;10.50;;;;;;;;;;5068220;28;20620;-64
2023/05/26 11:38:37;;;;;;;11.57;10.37;;;;;;;;;;5063489;28;20623;-62
2023/05/26 11:41:06;;;;;;;11.47;9.97;;;;;;;;;;5068393;28;20665;-65
2023/05/26 11:43:36;;;;;;;11.33;10.33;;;;;;;;;;5062587;28;21210;-62
2023/05/26 11:46:05;;;;;;;13.97;10.07;;;;;;;;;;5063389;28;20654;-63
2023/05/26 11:48:39;;;;;;;10.57;9.83;;;;;;;;;;5063078;28;20609;-63
2023/05/26 11:51:08;;;;;;;11.90;10.90;;;;;;;;;;5066847;28;20606;-63
2023/05/26 11:53:36;;;;;;;10.03;9.30;;;;;;;;;;5071045;28;20689;-62
2023/05/26 11:56:06;;;;;;;10.77;9.97;;;;;;;;;;5076115;28;20701;-62
2023/05/26 11:58:36;;;;;;;11.63;10.53;;;;;;;;;;5073973;28;20670;-62
2023/05/26 12:01:05;;;;;;;11.03;10.10;;;;;;;;;;5075729;28;20597;-62
2023/05/26 12:03:36;;;;;;;15.07;10.00;;;;;;;;;;5073845;28;20707;-62
2023/05/26 12:06:10;;;;;;;11.00;10.00;;;;;;;;;;5075242;28;20999;-62
2023/05/26 12:08:48;;;;;;;14.63;10.63;;;;;;;;;;5074346;28;20627;-64
2023/05/26 12:11:17;;;;;;;15.13;10.80;;;;;;;;;;5067556;28;20688;-63
2023/05/26 12:13:47;;;;;;;12.10;10.90;;;;;;;;;;5074852;28;20610;-63
2023/05/26 12:16:19;;;;;;;11.70;10.50;;;;;;;;;;5078417;28;20605;-63
2023/05/26 12:18:47;;;;;;;10.90;9.80;;;;;;;;;;5078420;28;20606;-64
2023/05/26 12:21:16;;;;;;;11.00;10.07;;;;;;;;;;5078052;28;21363;-63
2023/05/26 12:23:44;;;;;;;12.77;11.43;;;;;;;;;;5078082;28;20944;-63
2023/05/26 12:26:16;;;;;;;11.63;10.50;;;;;;;;;;5077127;28;21258;-63
2023/05/26 12:28:44;;;;;;;11.10;10.20;;;;;;;;;;5078104;28;20570;-63
2023/05/26 12:31:14;;;;;;;11.33;10.17;;;;;;;;;;5077889;28;20609;-63
2023/05/26 12:33:42;;;;;;;10.97;9.93;;;;;;;;;;5076884;28;20706;-63
2023/05/26 12:36:10;;;;;;;12.10;10.20;;;;;;;;;;5077765;28;20701;-63
2023/05/26 12:38:42;;;;;;;11.83;10.73;;;;;;;;;;5074030;28;20618;-63
2023/05/26 12:41:10;;;;;;;11.27;10.30;;;;;;;;;;5057649;28;20641;-63
2023/05/26 12:43:38;;;;;;;11.10;10.10;;;;;;;;;;5057704;28;20716;-63
2023/05/26 12:46:06;;;;;;;11.60;10.60;;;;;;;;;;5056113;28;20653;-64
2023/05/26 12:48:36;;;;;;;11.70;10.80;;;;;;;;;;5057062;28;20606;-63
2023/05/26 12:51:05;;;;;;;12.27;11.17;;;;;;;;;;5057177;28;20694;-63
2023/05/26 12:53:33;;;;;;;11.10;10.10;;;;;;;;;;5058010;28;20672;-63
2023/05/26 12:56:01;;;;;;;12.63;11.40;;;;;;;;;;5057381;28;20725;-63
2023/05/26 12:58:29;;;;;;;11.13;10.33;;;;;;;;;;5056942;28;20785;-63
2023/05/26 13:00:58;;;;;;;11.33;10.47;;;;;;;;;;5055880;28;20618;-64
2023/05/26 13:03:26;;;;;;;13.00;11.90;;;;;;;;;;5055671;28;21228;-63
2023/05/26 13:05:56;;;;;;;11.53;10.50;;;;;;;;;;5056502;28;20655;-64
2023/05/26 13:08:24;;;;;;;10.87;10.20;;;;;;;;;;5057875;28;20609;-62
2023/05/26 13:10:52;;;;;;;14.47;11.07;;;;;;;;;;5059190;28;20733;-63
2023/05/26 13:13:21;;;;;;;11.50;10.53;;;;;;;;;;5064261;28;20701;-63
2023/05/26 13:15:49;;;;;;;10.90;10.10;;;;;;;;;;5075459;28;20622;-63
2023/05/26 13:18:17;;;;;;;11.03;10.23;;;;;;;;;;5077282;28;20892;-63
2023/05/26 13:20:46;;;;;;;12.23;10.97;;;;;;;;;;5075567;28;21042;-66
2023/05/26 13:23:15;;;;;;;10.43;9.80;;;;;;;;;;5056977;28;20682;-63
2023/05/26 13:25:43;;;;;;;10.83;9.93;;;;;;;;;;5054747;28;20646;-63
2023/05/26 13:28:12;;;;;;;11.83;10.73;;;;;;;;;;5082407;28;20624;-63
2023/05/26 13:30:40;;;;;;;11.10;10.30;;;;;;;;;;5097024;28;21084;-64
2023/05/26 13:33:08;;;;;;;11.03;10.00;;;;;;;;;;5061146;28;20634;-64
2023/05/26 13:35:36;;;;;;;12.03;10.90;;;;;;;;;;5055363;28;20640;-63
2023/05/26 13:38:04;;;;;;;11.63;10.73;;;;;;;;;;5055913;28;20622;-64
2023/05/26 13:40:34;;;;;;;12.70;11.60;;;;;;;;;;5056048;28;20611;-63
2023/05/26 13:43:02;;;;;;;11.70;10.53;;;;;;;;;;5055680;28;20606;-63
2023/05/26 13:45:32;;;;;;;14.07;10.83;;;;;;;;;;5055936;28;20666;-62
2023/05/26 13:48:00;;;;;;;11.93;10.87;;;;;;;;;;5056082;28;20629;-63
2023/05/26 13:50:28;;;;;;;11.90;10.97;;;;;;;;;;5056074;28;20619;-63
2023/05/26 13:52:57;;;;;;;11.43;10.43;;;;;;;;;;5056967;28;20613;-63
2023/05/26 13:55:25;;;;;;;11.47;10.57;;;;;;;;;;5066347;28;21065;-63
2023/05/26 13:57:55;;;;;;;11.43;10.57;;;;;;;;;;5075664;28;20637;-63
2023/05/26 14:00:23;;;;;;;12.07;11.00;;;;;;;;;;5073991;28;20608;-63
2023/05/26 14:02:51;;;;;;;11.57;10.47;;;;;;;;;;5059799;28;20680;-63
2023/05/26 14:05:20;;;;;;;13.03;11.30;;;;;;;;;;5065409;28;20638;-63
2023/05/26 14:07:48;;;;;;;11.60;10.40;;;;;;;;;;5075215;28;20642;-63
2023/05/26 14:10:16;;;;;;;11.30;10.20;;;;;;;;;;5066823;28;20665;-63
2023/05/26 14:12:45;;;;;;;13.20;11.00;;;;;;;;;;5072161;28;20650;-63
2023/05/26 14:15:15;;;;;;;11.27;10.13;;;;;;;;;;5061621;28;20627;-63
2023/05/26 14:17:43;;;;;;;10.83;9.80;;;;;;;;;;5065790;28;20634;-64
2023/05/26 14:20:11;;;;;;;11.70;10.60;;;;;;;;;;5067672;28;21058;-63
2023/05/26 14:22:39;;;;;;;11.83;10.60;;;;;;;;;;5061387;28;21055;-63
2023/05/26 14:25:08;;;;;;;12.07;10.90;;;;;;;;;;5058233;28;20625;-63
2023/05/26 14:27:36;;;;;;;10.60;9.70;;;;;;;;;;5061942;28;21021;-64
2023/05/26 14:30:06;;;;;;;11.60;10.43;;;;;;;;;;5055428;28;20633;-64
2023/05/26 14:32:35;;;;;;;11.30;10.40;;;;;;;;;;5055592;28;20650;-63
2023/05/26 14:35:04;;;;;;;12.50;11.10;;;;;;;;;;5062097;28;20632;-63
2023/05/26 14:37:32;;;;;;;11.30;10.33;;;;;;;;;;5071146;28;20622;-63
2023/05/26 14:40:01;;;;;;;11.10;10.27;;;;;;;;;;5061128;28;20627;-63
2023/05/26 14:42:29;;;;;;;11.40;10.60;;;;;;;;;;5056087;28;20627;-63